createdAt,value
2024-02-16T00:00:18.264Z,100850.41
2024-02-16T00:03:06.507Z,100846.44
2024-02-16T00:05:34.981Z,100842.56
2024-02-16T00:08:04.495Z,100843.65
2024-02-16T00:10:32.743Z,100842.88
2024-02-16T00:13:00.923Z,100840.13
2024-02-16T00:15:29.151Z,100836.58
2024-02-16T00:17:57.587Z,100838.45
2024-02-16T00:20:25.844Z,100840.64
2024-02-16T00:22:54.216Z,100837.84
2024-02-16T00:25:22.801Z,100839.31
2024-02-16T00:27:54.548Z,100841.80
2024-02-16T00:30:24.132Z,100842.77
2024-02-16T00:32:54.323Z,100840.67
2024-02-16T00:35:22.765Z,100839.73
2024-02-16T00:37:51.036Z,100835.16
2024-02-16T00:40:19.449Z,100829.33
2024-02-16T00:42:47.582Z,100825.14
2024-02-16T00:45:15.885Z,100826.17
2024-02-16T00:47:44.180Z,100831.34
2024-02-16T00:50:12.724Z,100828.05
2024-02-16T00:52:42.129Z,100825.65
2024-02-16T00:55:11.601Z,100826.11
2024-02-16T00:57:40.103Z,100819.77
2024-02-16T01:00:10.744Z,100818.80
2024-02-16T01:02:39.248Z,100816.39
2024-02-16T01:05:08.289Z,100812.91
2024-02-16T01:07:36.551Z,100813.13
2024-02-16T01:10:05.530Z,100814.01
2024-02-16T01:12:33.784Z,100816.60
2024-02-16T01:15:02.692Z,100816.20
2024-02-16T01:17:31.503Z,100812.64
2024-02-16T01:20:00.431Z,100812.58
2024-02-16T01:22:30.745Z,100809.77
2024-02-16T01:24:59.009Z,100808.19
2024-02-16T01:27:29.306Z,100807.79
2024-02-16T01:29:58.053Z,100804.78
2024-02-16T01:32:26.393Z,100803.69
2024-02-16T01:34:55.037Z,100800.88
2024-02-16T01:37:23.790Z,100795.80
2024-02-16T01:39:51.932Z,100794.22
2024-02-16T01:42:20.280Z,100791.56
2024-02-16T01:44:48.846Z,100789.98
2024-02-16T01:47:17.905Z,100785.10
2024-02-16T01:49:46.685Z,100784.00
2024-02-16T01:52:15.051Z,100786.58
2024-02-16T01:54:43.632Z,100783.75
2024-02-16T01:57:13.688Z,100787.16
2024-02-16T01:59:42.124Z,100790.20
2024-02-16T02:02:10.291Z,100788.26
2024-02-16T02:04:38.857Z,100784.92
2024-02-16T02:07:15.112Z,100782.98
2024-02-16T02:09:43.827Z,100784.02
2024-02-16T02:12:12.289Z,100781.75
2024-02-16T02:14:40.579Z,100779.64
2024-02-16T02:17:08.794Z,100781.02
2024-02-16T02:19:37.158Z,100782.70
2024-02-16T02:22:05.712Z,100783.01
2024-02-16T02:24:34.004Z,100783.48
2024-02-16T02:27:02.626Z,100783.44
2024-02-16T02:29:31.354Z,100782.02
2024-02-16T02:31:59.528Z,100776.45
2024-02-16T02:34:28.382Z,100778.70
2024-02-16T02:36:56.597Z,100781.67
2024-02-16T02:39:24.893Z,100783.25
2024-02-16T02:41:53.277Z,100779.81
2024-02-16T02:44:21.525Z,100779.84
2024-02-16T02:46:49.789Z,100783.34
2024-02-16T02:49:18.252Z,100785.11
2024-02-16T02:51:46.548Z,100785.31
2024-02-16T02:54:14.898Z,100786.23
2024-02-16T02:56:43.927Z,100786.33
2024-02-16T02:59:12.115Z,100788.02
2024-02-16T03:01:40.597Z,100784.73
2024-02-16T03:04:08.960Z,100787.48
2024-02-16T03:06:37.826Z,100780.43
2024-02-16T03:09:06.678Z,100783.25
2024-02-16T03:11:34.916Z,100780.88
2024-02-16T03:14:03.275Z,100781.27
2024-02-16T03:16:31.550Z,100779.23
2024-02-16T03:18:59.865Z,100781.65
2024-02-16T03:21:28.699Z,100777.67
2024-02-16T03:23:57.140Z,100773.55
2024-02-16T03:26:25.373Z,100775.28
2024-02-16T03:28:53.851Z,100777.92
2024-02-16T03:31:26.012Z,100780.59
2024-02-16T03:33:54.466Z,100780.66
2024-02-16T03:36:23.039Z,100782.61
2024-02-16T03:38:51.805Z,100783.30
2024-02-16T03:41:22.509Z,100780.70
2024-02-16T03:43:51.583Z,100781.95
2024-02-16T03:46:19.808Z,100779.36
2024-02-16T03:48:48.355Z,100780.60
2024-02-16T03:51:16.765Z,100780.48
2024-02-16T03:53:46.319Z,100782.09
2024-02-16T03:56:20.406Z,100780.25
2024-02-16T03:58:49.139Z,100781.77
2024-02-16T04:01:17.436Z,100777.01
2024-02-16T04:03:45.661Z,100779.34
2024-02-16T04:06:14.189Z,100780.27
2024-02-16T04:08:42.321Z,100777.38
2024-02-16T04:11:13.697Z,100776.93
2024-02-16T04:13:42.573Z,100774.42
2024-02-16T04:16:10.815Z,100776.56
2024-02-16T04:18:39.233Z,100779.21
2024-02-16T04:21:07.805Z,100780.30
2024-02-16T04:23:36.068Z,100777.20
2024-02-16T04:26:04.287Z,100776.06
2024-02-16T04:28:32.518Z,100771.83
2024-02-16T04:31:00.689Z,100768.10
2024-02-16T04:33:29.246Z,100764.36
2024-02-16T04:35:57.581Z,100764.75
2024-02-16T04:38:25.823Z,100761.50
2024-02-16T04:40:54.215Z,100762.08
2024-02-16T04:43:22.472Z,100758.67
2024-02-16T04:45:50.927Z,100757.52
2024-02-16T04:48:19.409Z,100754.08
2024-02-16T04:50:47.692Z,100749.44
2024-02-16T04:53:16.199Z,100747.36
2024-02-16T04:55:44.458Z,100744.77
2024-02-16T04:58:13.037Z,100747.69
2024-02-16T05:00:41.437Z,100747.91
2024-02-16T05:03:09.828Z,100744.64
2024-02-16T05:05:38.449Z,100743.40
2024-02-16T05:08:07.368Z,100745.96
2024-02-16T05:10:35.541Z,100746.27
2024-02-16T05:13:04.027Z,100739.35
2024-02-16T05:15:32.954Z,100737.96
2024-02-16T05:18:01.487Z,100736.73
2024-02-16T05:20:30.627Z,100732.21
2024-02-16T05:22:58.860Z,100728.06
2024-02-16T05:25:27.138Z,100725.63
2024-02-16T05:27:55.309Z,100727.17
2024-02-16T05:30:23.528Z,100724.04
2024-02-16T05:32:54.569Z,100725.09
2024-02-16T05:35:22.798Z,100724.75
2024-02-16T05:37:52.967Z,100723.69
2024-02-16T05:40:25.876Z,100727.13
2024-02-16T05:42:54.959Z,100722.61
2024-02-16T05:45:23.232Z,100729.69
2024-02-16T05:47:52.384Z,100732.11
2024-02-16T05:50:22.436Z,100735.89
2024-02-16T05:52:51.378Z,100734.81
2024-02-16T05:55:22.526Z,100732.73
2024-02-16T05:57:50.806Z,100726.86
2024-02-16T06:00:22.837Z,100722.07
2024-02-16T06:02:51.280Z,100726.60
2024-02-16T06:05:21.783Z,100727.31
2024-02-16T06:07:50.041Z,100729.76
2024-02-16T06:10:19.565Z,100733.60
2024-02-16T06:12:47.806Z,100733.27
2024-02-16T06:15:16.455Z,100736.03
2024-02-16T06:17:45.082Z,100740.83
2024-02-16T06:20:16.206Z,100743.23
2024-02-16T06:22:45.629Z,100745.13
2024-02-16T06:25:14.233Z,100745.45
2024-02-16T06:27:42.760Z,100743.37
2024-02-16T06:30:14.973Z,100746.48
2024-02-16T06:32:43.935Z,100750.13
2024-02-16T06:35:12.880Z,100756.17
2024-02-16T06:37:41.411Z,100757.52
2024-02-16T06:40:13.035Z,100762.15
2024-02-16T06:42:41.332Z,100761.75
2024-02-16T06:45:10.278Z,100763.44
2024-02-16T06:47:38.588Z,100765.14
2024-02-16T06:50:08.537Z,100760.42
2024-02-16T06:52:36.810Z,100758.60
2024-02-16T06:55:06.009Z,100757.84
2024-02-16T06:57:34.151Z,100749.94
2024-02-16T07:00:04.578Z,100755.37
2024-02-16T07:02:33.791Z,100756.64
2024-02-16T07:05:02.056Z,100759.80
2024-02-16T07:07:30.245Z,100758.65
2024-02-16T07:09:58.408Z,100756.45
2024-02-16T07:12:26.612Z,100757.73
2024-02-16T07:14:55.193Z,100751.55
2024-02-16T07:17:23.537Z,100748.33
2024-02-16T07:19:52.054Z,100746.98
2024-02-16T07:22:20.200Z,100748.06
2024-02-16T07:24:48.196Z,100745.33
2024-02-16T07:27:16.494Z,100745.54
2024-02-16T07:29:44.764Z,100746.08
2024-02-16T07:32:13.807Z,100743.67
2024-02-16T07:34:42.112Z,100742.48
2024-02-16T07:37:10.258Z,100742.30
2024-02-16T07:39:38.661Z,100740.71
2024-02-16T07:42:07.552Z,100739.11
2024-02-16T07:44:35.691Z,100739.09
2024-02-16T07:47:04.525Z,100739.91
2024-02-16T07:49:33.428Z,100735.02
2024-02-16T07:52:01.656Z,100728.70
2024-02-16T07:54:30.881Z,100725.56
2024-02-16T07:57:02.082Z,100724.67
2024-02-16T07:59:30.521Z,100722.59
2024-02-16T08:01:58.590Z,100724.16
2024-02-16T08:04:26.806Z,100722.59
2024-02-16T08:06:55.138Z,100719.14
2024-02-16T08:09:23.500Z,100719.98
2024-02-16T08:11:52.115Z,100721.05
2024-02-16T08:14:20.330Z,100718.14
2024-02-16T08:16:48.609Z,100718.49
2024-02-16T08:19:17.898Z,100718.73
2024-02-16T08:21:46.329Z,100720.24
2024-02-16T08:24:14.478Z,100725.05
2024-02-16T08:26:42.724Z,100723.08
2024-02-16T08:29:11.295Z,100727.70
2024-02-16T08:31:39.513Z,100729.91
2024-02-16T08:34:08.882Z,100728.13
2024-02-16T08:36:39.229Z,100726.51
2024-02-16T08:39:08.008Z,100725.56
2024-02-16T08:41:36.252Z,100720.77
2024-02-16T08:44:05.046Z,100720.86
2024-02-16T08:46:33.627Z,100720.41
2024-02-16T08:49:01.988Z,100722.02
2024-02-16T08:51:30.229Z,100719.20
2024-02-16T08:53:58.366Z,100718.02
2024-02-16T08:56:26.525Z,100721.02
2024-02-16T08:58:55.621Z,100721.25
2024-02-16T09:01:34.171Z,100715.19
2024-02-16T09:04:02.822Z,100716.89
2024-02-16T09:06:31.698Z,100718.48
2024-02-16T09:08:59.988Z,100713.64
2024-02-16T09:11:29.201Z,100711.53
2024-02-16T09:13:57.663Z,100712.23
2024-02-16T09:16:26.120Z,100710.52
2024-02-16T09:18:54.320Z,100708.51
2024-02-16T09:21:25.416Z,100708.41
2024-02-16T09:23:54.240Z,100702.52
2024-02-16T09:26:23.968Z,100704.23
2024-02-16T09:28:52.118Z,100703.80
2024-02-16T09:31:20.387Z,100706.99
2024-02-16T09:33:48.867Z,100703.74
2024-02-16T09:36:17.171Z,100703.02
2024-02-16T09:38:45.418Z,100703.38
2024-02-16T09:41:14.716Z,100697.70
2024-02-16T09:43:43.092Z,100699.48
2024-02-16T09:46:11.977Z,100698.63
2024-02-16T09:48:42.099Z,100700.10
2024-02-16T09:51:10.462Z,100704.86
2024-02-16T09:53:38.646Z,100698.89
2024-02-16T09:56:10.199Z,100694.36
2024-02-16T09:58:38.482Z,100693.80
2024-02-16T10:01:07.004Z,100691.05
2024-02-16T10:03:35.546Z,100685.41
2024-02-16T10:06:14.832Z,100684.14
2024-02-16T10:09:09.687Z,100681.26
2024-02-16T10:11:40.539Z,100684.00
2024-02-16T10:14:11.252Z,100679.48
2024-02-16T10:16:39.513Z,100681.29
2024-02-16T10:19:15.708Z,100681.41
2024-02-16T10:21:45.847Z,100686.09
2024-02-16T10:24:16.335Z,100684.06
2024-02-16T10:26:44.794Z,100683.20
2024-02-16T10:29:14.714Z,100678.08
2024-02-16T10:31:43.402Z,100676.23
2024-02-16T10:34:12.433Z,100676.48
2024-02-16T10:36:42.769Z,100678.09
2024-02-16T10:39:13.049Z,100675.86
2024-02-16T10:41:42.984Z,100672.91
2024-02-16T10:44:11.951Z,100677.64
2024-02-16T10:46:40.417Z,100677.41
2024-02-16T10:49:09.393Z,100673.57
2024-02-16T10:51:40.783Z,100674.80
2024-02-16T10:54:09.583Z,100667.44
2024-02-16T10:56:39.594Z,100664.78
2024-02-16T10:59:10.277Z,100659.78
2024-02-16T11:01:47.330Z,100663.83
2024-02-16T11:04:24.094Z,100664.55
2024-02-16T11:07:01.185Z,100661.34
2024-02-16T11:09:31.483Z,100659.00
2024-02-16T11:12:00.949Z,100654.31
2024-02-16T11:14:39.505Z,100656.45
2024-02-16T11:17:14.947Z,100649.28
2024-02-16T11:19:44.531Z,100644.73
2024-02-16T11:22:17.046Z,100641.48
2024-02-16T11:24:47.043Z,100635.14
2024-02-16T11:27:21.052Z,100637.19
2024-02-16T11:29:50.999Z,100635.27
2024-02-16T11:32:20.512Z,100626.98
2024-02-16T11:34:49.492Z,100626.18
2024-02-16T11:37:18.622Z,100623.48
2024-02-16T11:39:48.334Z,100620.16
2024-02-16T11:42:21.308Z,100623.46
2024-02-16T11:44:54.978Z,100619.13
2024-02-16T11:47:29.776Z,100615.36
2024-02-16T11:50:02.194Z,100613.77
2024-02-16T11:52:30.622Z,100608.90
2024-02-16T11:55:02.781Z,100607.14
2024-02-16T11:57:32.121Z,100604.54
2024-02-16T12:00:00.557Z,100603.52
2024-02-16T12:02:29.615Z,100600.69
2024-02-16T12:05:03.544Z,100598.61
2024-02-16T12:07:34.647Z,100591.89
2024-02-16T12:10:06.401Z,100592.99
2024-02-16T12:12:36.303Z,100589.98
2024-02-16T12:15:07.280Z,100597.95
2024-02-16T12:17:36.206Z,100596.37
2024-02-16T12:20:11.823Z,100595.05
2024-02-16T12:22:40.217Z,100592.87
2024-02-16T12:25:08.976Z,100590.79
2024-02-16T12:27:37.199Z,100585.72
2024-02-16T12:30:06.213Z,100584.84
2024-02-16T12:32:34.478Z,100584.52
2024-02-16T12:35:04.720Z,100584.00
2024-02-16T12:37:33.262Z,100583.55
2024-02-16T12:40:02.704Z,100581.13
2024-02-16T12:42:31.020Z,100587.54
2024-02-16T12:44:59.172Z,100591.16
2024-02-16T12:47:27.504Z,100591.02
2024-02-16T12:49:57.875Z,100584.81
2024-02-16T12:52:26.096Z,100585.21
2024-02-16T12:54:55.358Z,100586.86
2024-02-16T12:57:23.805Z,100589.27
2024-02-16T12:59:52.056Z,100588.53
2024-02-16T13:02:20.398Z,100586.31
2024-02-16T13:04:48.790Z,100587.66
2024-02-16T13:07:17.286Z,100586.80
2024-02-16T13:09:46.813Z,100582.61
2024-02-16T13:12:17.489Z,100582.05
2024-02-16T13:14:46.916Z,100579.08
2024-02-16T13:17:15.299Z,100574.19
2024-02-16T13:19:43.904Z,100576.81
2024-02-16T13:22:12.256Z,100575.61
2024-02-16T13:24:40.560Z,100578.25
2024-02-16T13:27:09.153Z,100575.81
2024-02-16T13:29:38.473Z,100572.80
2024-02-16T13:32:06.895Z,100577.04
2024-02-16T13:34:34.988Z,100574.03
2024-02-16T13:37:03.188Z,100575.20
2024-02-16T13:39:31.758Z,100573.12
2024-02-16T13:42:00.016Z,100567.68
2024-02-16T13:44:28.551Z,100569.55
2024-02-16T13:46:56.749Z,100567.45
2024-02-16T13:49:25.084Z,100568.33
2024-02-16T13:51:53.484Z,100568.59
2024-02-16T13:54:23.597Z,100572.90
2024-02-16T13:56:51.643Z,100570.45
2024-02-16T13:59:20.431Z,100566.54
2024-02-16T14:01:49.539Z,100564.08
2024-02-16T14:04:17.879Z,100567.41
2024-02-16T14:06:46.818Z,100567.96
2024-02-16T14:09:23.888Z,100572.86
2024-02-16T14:11:57.574Z,100569.02
2024-02-16T14:14:32.939Z,100568.84
2024-02-16T14:17:06.313Z,100570.81
2024-02-16T14:19:38.751Z,100566.00
2024-02-16T14:22:08.583Z,100566.84
2024-02-16T14:24:37.046Z,100562.50
2024-02-16T14:27:06.243Z,100563.49
2024-02-16T14:29:34.740Z,100564.29
2024-02-16T14:32:03.011Z,100564.81
2024-02-16T14:34:32.417Z,100563.86
2024-02-16T14:37:00.892Z,100567.48
2024-02-16T14:39:29.213Z,100572.21
2024-02-16T14:41:57.454Z,100571.55
2024-02-16T14:44:25.824Z,100567.63
2024-02-16T14:46:54.008Z,100564.23
2024-02-16T14:49:23.297Z,100561.91
2024-02-16T14:51:54.266Z,100563.35
2024-02-16T14:54:22.553Z,100562.12
2024-02-16T14:56:54.947Z,100563.36
2024-02-16T14:59:23.698Z,100565.69
2024-02-16T15:01:53.479Z,100558.58
2024-02-16T15:04:22.899Z,100557.75
2024-02-16T15:06:51.386Z,100554.84
2024-02-16T15:09:19.920Z,100556.30
2024-02-16T15:11:48.733Z,100553.98
2024-02-16T15:14:19.203Z,100556.51
2024-02-16T15:16:48.694Z,100555.09
2024-02-16T15:19:16.961Z,100551.36
2024-02-16T15:21:46.040Z,100552.33
2024-02-16T15:24:14.565Z,100547.30
2024-02-16T15:26:42.785Z,100549.67
2024-02-16T15:29:11.265Z,100551.17
2024-02-16T15:31:39.546Z,100557.27
2024-02-16T15:34:08.095Z,100563.05
2024-02-16T15:36:36.959Z,100562.46
2024-02-16T15:39:05.846Z,100556.02
2024-02-16T15:41:34.476Z,100553.02
2024-02-16T15:44:03.213Z,100558.80
2024-02-16T15:46:31.650Z,100564.75
2024-02-16T15:48:59.890Z,100566.29
2024-02-16T15:51:30.343Z,100567.16
2024-02-16T15:53:59.166Z,100558.52
2024-02-16T15:56:28.324Z,100559.36
2024-02-16T15:59:00.874Z,100561.78
2024-02-16T16:04:37.330Z,100567.23
2024-02-16T16:07:05.845Z,100560.33
2024-02-16T16:09:34.303Z,100563.77
2024-02-16T16:12:03.288Z,100567.70
2024-02-16T16:14:31.518Z,100570.11
2024-02-16T16:16:59.794Z,100577.96
2024-02-16T16:19:28.809Z,100578.73
2024-02-16T16:21:57.568Z,100583.37
2024-02-16T16:24:25.782Z,100588.54
2024-02-16T16:26:54.575Z,100585.46
2024-02-16T16:29:22.803Z,100579.70
2024-02-16T16:31:51.319Z,100576.55
2024-02-16T16:34:19.787Z,100575.36
2024-02-16T16:36:48.131Z,100577.75
2024-02-16T16:39:18.603Z,100581.56
2024-02-16T16:41:47.051Z,100579.40
2024-02-16T16:44:15.939Z,100580.06
2024-02-16T16:46:44.120Z,100581.38
2024-02-16T16:49:13.302Z,100580.54
2024-02-16T16:51:41.510Z,100584.71
2024-02-16T16:54:10.546Z,100582.38
2024-02-16T16:56:38.851Z,100584.05
2024-02-16T16:59:06.931Z,100586.92
2024-02-16T17:01:37.937Z,100592.59
2024-02-16T17:04:06.289Z,100595.80
2024-02-16T17:06:35.181Z,100590.14
2024-02-16T17:09:04.005Z,100598.24
2024-02-16T17:11:37.458Z,100601.29
2024-02-16T17:14:09.339Z,100597.64
2024-02-16T17:16:37.752Z,100600.15
2024-02-16T17:19:05.994Z,100602.14
2024-02-16T17:21:34.660Z,100604.80
2024-02-16T17:24:03.011Z,100601.36
2024-02-16T17:26:31.470Z,100599.91
2024-02-16T17:28:59.646Z,100603.98
2024-02-16T17:31:27.911Z,100606.82
2024-02-16T17:33:56.202Z,100606.35
2024-02-16T17:36:24.674Z,100612.14
2024-02-16T17:38:52.946Z,100618.86
2024-02-16T17:41:24.211Z,100618.86
2024-02-16T17:43:52.259Z,100625.02
2024-02-16T17:46:20.633Z,100628.58
2024-02-16T17:48:48.960Z,100631.42
2024-02-16T17:51:17.421Z,100631.32
2024-02-16T17:53:45.670Z,100631.20
2024-02-16T17:56:13.839Z,100633.51
2024-02-16T17:58:41.903Z,100631.13
2024-02-16T18:01:10.497Z,100629.58
2024-02-16T18:03:38.843Z,100628.27
2024-02-16T18:06:08.325Z,100631.72
2024-02-16T18:08:36.658Z,100632.89
2024-02-16T18:11:04.924Z,100631.94
2024-02-16T18:13:33.090Z,100630.64
2024-02-16T18:16:01.329Z,100630.77
2024-02-16T18:18:29.751Z,100633.19
2024-02-16T18:20:58.172Z,100635.23
2024-02-16T18:23:28.648Z,100631.50
2024-02-16T18:25:56.927Z,100631.80
2024-02-16T18:28:29.895Z,100631.73
2024-02-16T18:31:02.579Z,100633.73
2024-02-16T18:33:31.287Z,100625.79
2024-02-16T18:36:00.388Z,100627.81
2024-02-16T18:38:29.045Z,100627.86
2024-02-16T18:40:57.113Z,100630.55
2024-02-16T18:43:25.392Z,100629.70
2024-02-16T18:45:53.806Z,100631.28
2024-02-16T18:48:25.929Z,100630.77
2024-02-16T18:50:54.207Z,100630.80
2024-02-16T18:53:22.389Z,100627.16
2024-02-16T18:55:51.067Z,100631.45
2024-02-16T18:58:20.575Z,100632.03
2024-02-16T19:00:49.172Z,100627.01
2024-02-16T19:03:17.773Z,100628.48
2024-02-16T19:05:46.428Z,100630.34
2024-02-16T19:08:14.698Z,100629.74
2024-02-16T19:10:44.749Z,100635.27
2024-02-16T19:13:13.391Z,100637.82
2024-02-16T19:15:41.581Z,100641.95
2024-02-16T19:18:10.333Z,100645.02
2024-02-16T19:20:38.829Z,100648.42
2024-02-16T19:23:09.976Z,100651.29
2024-02-16T19:25:38.154Z,100652.23
2024-02-16T19:28:06.625Z,100655.11
2024-02-16T19:30:34.792Z,100653.63
2024-02-16T19:33:03.839Z,100654.48
2024-02-16T19:35:32.383Z,100653.73
2024-02-16T19:38:00.647Z,100653.55
2024-02-16T19:40:29.332Z,100655.52
2024-02-16T19:42:58.222Z,100655.16
2024-02-16T19:45:29.316Z,100657.43
2024-02-16T19:47:58.106Z,100661.64
2024-02-16T19:50:26.956Z,100660.21
2024-02-16T19:52:55.316Z,100656.91
2024-02-16T19:55:24.623Z,100660.92
2024-02-16T19:57:52.998Z,100662.98
2024-02-16T20:00:21.910Z,100665.34
2024-02-16T20:02:53.240Z,100665.34
2024-02-16T20:05:24.363Z,100665.17
2024-02-16T20:07:52.812Z,100664.16
2024-02-16T20:10:21.039Z,100667.77
2024-02-16T20:12:49.133Z,100672.96
2024-02-16T20:15:19.797Z,100675.98
2024-02-16T20:17:48.353Z,100678.61
2024-02-16T20:20:17.108Z,100678.44
2024-02-16T20:22:45.365Z,100683.38
2024-02-16T20:25:13.644Z,100683.09
2024-02-16T20:27:44.099Z,100683.77
2024-02-16T20:30:12.696Z,100682.69
2024-02-16T20:32:44.086Z,100681.98
2024-02-16T20:35:13.880Z,100684.17
2024-02-16T20:37:42.395Z,100686.52
2024-02-16T20:40:11.394Z,100685.70
2024-02-16T20:42:39.858Z,100684.39
2024-02-16T20:45:08.689Z,100688.19
2024-02-16T20:47:37.058Z,100687.77
2024-02-16T20:50:06.349Z,100686.33
2024-02-16T20:52:34.602Z,100681.48
2024-02-16T20:55:02.979Z,100684.80
2024-02-16T20:57:31.290Z,100683.77
2024-02-16T20:59:59.560Z,100687.60
2024-02-16T21:02:28.230Z,100690.30
2024-02-16T21:04:56.443Z,100694.99
2024-02-16T21:07:24.877Z,100695.01
2024-02-16T21:09:54.585Z,100694.64
2024-02-16T21:12:22.790Z,100696.52
2024-02-16T21:14:51.014Z,100696.17
2024-02-16T21:17:19.605Z,100698.36
2024-02-16T21:19:48.270Z,100699.00
2024-02-16T21:22:17.389Z,100704.53
2024-02-16T21:24:45.678Z,100705.03
2024-02-16T21:27:13.980Z,100706.63
2024-02-16T21:29:44.166Z,100704.55
2024-02-16T21:32:12.442Z,100705.73
2024-02-16T21:34:41.056Z,100708.00
2024-02-16T21:37:09.493Z,100708.79
2024-02-16T21:39:37.606Z,100706.66
2024-02-16T21:42:07.381Z,100712.23
2024-02-16T21:44:37.597Z,100716.60
2024-02-16T21:47:06.285Z,100718.37
2024-02-16T21:49:34.548Z,100715.54
2024-02-16T21:52:02.840Z,100719.08
2024-02-16T21:54:31.026Z,100716.23
2024-02-16T21:56:59.528Z,100722.42
2024-02-16T21:59:28.094Z,100721.39
2024-02-16T22:01:56.341Z,100727.23
2024-02-16T22:04:24.612Z,100723.72
2024-02-16T22:06:54.967Z,100726.80
2024-02-16T22:09:23.186Z,100733.55
2024-02-16T22:11:51.419Z,100733.36
2024-02-16T22:14:19.659Z,100737.67
2024-02-16T22:16:47.931Z,100740.23
2024-02-16T22:19:16.115Z,100740.61
2024-02-16T22:21:45.951Z,100744.33
2024-02-16T22:24:14.168Z,100744.43
2024-02-16T22:26:42.363Z,100749.77
2024-02-16T22:29:10.665Z,100753.13
2024-02-16T22:31:42.290Z,100751.36
2024-02-16T22:34:13.017Z,100755.31
2024-02-16T22:36:41.815Z,100753.13
2024-02-16T22:39:10.620Z,100754.65
2024-02-16T22:41:39.076Z,100757.73
2024-02-16T22:44:07.266Z,100760.84
2024-02-16T22:46:37.810Z,100758.89
2024-02-16T22:49:06.302Z,100759.21
2024-02-16T22:51:40.046Z,100760.06
2024-02-16T22:54:14.590Z,100761.11
2024-02-16T22:56:44.209Z,100769.13
2024-02-16T22:59:12.365Z,100765.79
2024-02-16T23:01:40.569Z,100769.98
2024-02-16T23:04:09.605Z,100769.50
2024-02-16T23:06:38.141Z,100773.34
2024-02-16T23:09:10.173Z,100771.14
2024-02-16T23:11:42.985Z,100776.21
2024-02-16T23:14:11.553Z,100776.05
2024-02-16T23:16:39.924Z,100776.90
2024-02-16T23:19:08.276Z,100776.73
2024-02-16T23:21:36.604Z,100779.51
2024-02-16T23:24:07.876Z,100781.74
2024-02-16T23:26:36.801Z,100785.90
2024-02-16T23:29:05.179Z,100785.39
2024-02-16T23:31:33.889Z,100786.23
2024-02-16T23:34:02.110Z,100786.38
2024-02-16T23:36:30.447Z,100785.46
2024-02-16T23:38:58.812Z,100785.60
2024-02-16T23:41:27.175Z,100788.84
2024-02-16T23:43:57.211Z,100784.39
2024-02-16T23:46:25.657Z,100781.68
2024-02-16T23:48:53.897Z,100782.80
2024-02-16T23:51:23.146Z,100782.21
2024-02-16T23:53:51.502Z,100787.23
2024-02-16T23:56:19.884Z,100791.00
2024-02-16T23:58:48.058Z,100790.06
